sensor_id;sensor_type;location;lat;lon;timestamp;temperature;humidity
64858;SHT30;51335;51.148;6.950;2023-09-19T00:00:25;15.08;96.74
64858;SHT30;51335;51.148;6.950;2023-09-19T00:00:57;15.05;96.87
64858;SHT30;51335;51.148;6.950;2023-09-19T00:01:27;15.03;97.05
64858;SHT30;51335;51.148;6.950;2023-09-19T00:01:57;15.01;97.31
64858;SHT30;51335;51.148;6.950;2023-09-19T00:02:28;14.97;97.26
64858;SHT30;51335;51.148;6.950;2023-09-19T00:02:58;14.94;97.28
64858;SHT30;51335;51.148;6.950;2023-09-19T00:03:28;14.97;97.31
64858;SHT30;51335;51.148;6.950;2023-09-19T00:03:59;14.94;97.32
64858;SHT30;51335;51.148;6.950;2023-09-19T00:04:31;14.97;97.33
64858;SHT30;51335;51.148;6.950;2023-09-19T00:05:01;14.98;97.27
64858;SHT30;51335;51.148;6.950;2023-09-19T00:05:35;14.98;97.25
64858;SHT30;51335;51.148;6.950;2023-09-19T00:06:06;14.98;97.19
64858;SHT30;51335;51.148;6.950;2023-09-19T00:06:36;15.00;97.11
64858;SHT30;51335;51.148;6.950;2023-09-19T00:07:07;14.95;97.05
64858;SHT30;51335;51.148;6.950;2023-09-19T00:07:37;14.98;97.13
64858;SHT30;51335;51.148;6.950;2023-09-19T00:08:09;15.03;97.01
64858;SHT30;51335;51.148;6.950;2023-09-19T00:08:39;14.97;97.00
64858;SHT30;51335;51.148;6.950;2023-09-19T00:09:09;14.98;96.87
64858;SHT30;51335;51.148;6.950;2023-09-19T00:09:40;15.01;96.84
64858;SHT30;51335;51.148;6.950;2023-09-19T00:10:10;15.00;96.80
64858;SHT30;51335;51.148;6.950;2023-09-19T00:10:40;14.98;96.86
64858;SHT30;51335;51.148;6.950;2023-09-19T00:11:10;14.98;96.96
64858;SHT30;51335;51.148;6.950;2023-09-19T00:11:41;15.00;96.86
64858;SHT30;51335;51.148;6.950;2023-09-19T00:12:11;14.98;96.80
64858;SHT30;51335;51.148;6.950;2023-09-19T00:12:43;14.94;96.90
64858;SHT30;51335;51.148;6.950;2023-09-19T00:13:13;14.91;96.94
64858;SHT30;51335;51.148;6.950;2023-09-19T00:13:43;14.90;97.09
64858;SHT30;51335;51.148;6.950;2023-09-19T00:14:14;14.87;97.16
64858;SHT30;51335;51.148;6.950;2023-09-19T00:14:44;14.87;97.34
64858;SHT30;51335;51.148;6.950;2023-09-19T00:15:14;14.83;97.26
64858;SHT30;51335;51.148;6.950;2023-09-19T00:15:47;14.84;97.43
64858;SHT30;51335;51.148;6.950;2023-09-19T00:16:17;14.84;97.38
64858;SHT30;51335;51.148;6.950;2023-09-19T00:16:47;14.87;97.41
64858;SHT30;51335;51.148;6.950;2023-09-19T00:17:17;14.87;97.46
64858;SHT30;51335;51.148;6.950;2023-09-19T00:17:48;14.88;97.43
64858;SHT30;51335;51.148;6.950;2023-09-19T00:18:19;14.90;97.54
64858;SHT30;51335;51.148;6.950;2023-09-19T00:18:49;14.91;97.45
64858;SHT30;51335;51.148;6.950;2023-09-19T00:19:20;14.91;97.30
64858;SHT30;51335;51.148;6.950;2023-09-19T00:19:50;14.91;97.32
64858;SHT30;51335;51.148;6.950;2023-09-19T00:20:21;14.94;97.32
64858;SHT30;51335;51.148;6.950;2023-09-19T00:20:51;14.91;97.17
64858;SHT30;51335;51.148;6.950;2023-09-19T00:21:21;14.93;97.20
64858;SHT30;51335;51.148;6.950;2023-09-19T00:21:52;14.90;97.18
64858;SHT30;51335;51.148;6.950;2023-09-19T00:22:22;14.90;97.17
64858;SHT30;51335;51.148;6.950;2023-09-19T00:22:52;14.91;97.17
64858;SHT30;51335;51.148;6.950;2023-09-19T00:23:22;14.90;97.19
64858;SHT30;51335;51.148;6.950;2023-09-19T00:23:53;14.91;97.16
64858;SHT30;51335;51.148;6.950;2023-09-19T00:24:23;14.90;97.11
64858;SHT30;51335;51.148;6.950;2023-09-19T00:24:54;14.87;97.20
64858;SHT30;51335;51.148;6.950;2023-09-19T00:25:24;14.84;97.38
64858;SHT30;51335;51.148;6.950;2023-09-19T00:26:01;14.81;97.38
64858;SHT30;51335;51.148;6.950;2023-09-19T00:26:32;14.83;97.41
64858;SHT30;51335;51.148;6.950;2023-09-19T00:27:02;14.80;97.45
64858;SHT30;51335;51.148;6.950;2023-09-19T00:27:33;14.76;97.53
64858;SHT30;51335;51.148;6.950;2023-09-19T00:28:04;14.77;97.59
64858;SHT30;51335;51.148;6.950;2023-09-19T00:28:34;14.79;97.75
64858;SHT30;51335;51.148;6.950;2023-09-19T00:29:05;14.76;97.71
64858;SHT30;51335;51.148;6.950;2023-09-19T00:29:35;14.74;97.70
64858;SHT30;51335;51.148;6.950;2023-09-19T00:30:08;14.81;97.73
64858;SHT30;51335;51.148;6.950;2023-09-19T00:30:38;14.81;97.68
64858;SHT30;51335;51.148;6.950;2023-09-19T00:31:08;14.81;97.68
64858;SHT30;51335;51.148;6.950;2023-09-19T00:31:39;14.80;97.70
64858;SHT30;51335;51.148;6.950;2023-09-19T00:32:09;14.83;97.63
64858;SHT30;51335;51.148;6.950;2023-09-19T00:32:40;14.80;97.60
64858;SHT30;51335;51.148;6.950;2023-09-19T00:33:11;14.80;97.68
64858;SHT30;51335;51.148;6.950;2023-09-19T00:33:42;14.77;97.68
64858;SHT30;51335;51.148;6.950;2023-09-19T00:34:12;14.77;97.74
64858;SHT30;51335;51.148;6.950;2023-09-19T00:34:42;14.80;97.76
64858;SHT30;51335;51.148;6.950;2023-09-19T00:35:16;14.77;97.65
64858;SHT30;51335;51.148;6.950;2023-09-19T00:35:54;14.76;97.71
64858;SHT30;51335;51.148;6.950;2023-09-19T00:36:24;14.74;97.71
64858;SHT30;51335;51.148;6.950;2023-09-19T00:36:55;14.74;97.75
64858;SHT30;51335;51.148;6.950;2023-09-19T00:37:25;14.76;97.78
64858;SHT30;51335;51.148;6.950;2023-09-19T00:37:55;14.77;97.71
64858;SHT30;51335;51.148;6.950;2023-09-19T00:38:25;14.76;97.64
64858;SHT30;51335;51.148;6.950;2023-09-19T00:38:56;14.77;97.68
64858;SHT30;51335;51.148;6.950;2023-09-19T00:39:26;14.76;97.67
64858;SHT30;51335;51.148;6.950;2023-09-19T00:39:56;14.77;97.57
64858;SHT30;51335;51.148;6.950;2023-09-19T00:40:27;14.83;97.52
64858;SHT30;51335;51.148;6.950;2023-09-19T00:40:57;14.79;97.47
64858;SHT30;51335;51.148;6.950;2023-09-19T00:41:27;14.77;97.46
64858;SHT30;51335;51.148;6.950;2023-09-19T00:41:57;14.76;97.57
64858;SHT30;51335;51.148;6.950;2023-09-19T00:42:28;14.73;97.59
64858;SHT30;51335;51.148;6.950;2023-09-19T00:42:58;14.70;97.69
64858;SHT30;51335;51.148;6.950;2023-09-19T00:43:28;14.74;97.76
64858;SHT30;51335;51.148;6.950;2023-09-19T00:43:59;14.74;97.80
64858;SHT30;51335;51.148;6.950;2023-09-19T00:44:29;14.77;97.75
64858;SHT30;51335;51.148;6.950;2023-09-19T00:44:59;14.73;97.74
64858;SHT30;51335;51.148;6.950;2023-09-19T00:45:33;14.73;97.69
64858;SHT30;51335;51.148;6.950;2023-09-19T00:46:06;14.73;97.78
64858;SHT30;51335;51.148;6.950;2023-09-19T00:46:36;14.76;97.68
64858;SHT30;51335;51.148;6.950;2023-09-19T00:47:06;14.77;97.70
64858;SHT30;51335;51.148;6.950;2023-09-19T00:47:41;14.73;97.68
64858;SHT30;51335;51.148;6.950;2023-09-19T00:48:12;14.74;97.61
64858;SHT30;51335;51.148;6.950;2023-09-19T00:48:42;14.72;97.49
64858;SHT30;51335;51.148;6.950;2023-09-19T00:49:13;14.72;97.55
64858;SHT30;51335;51.148;6.950;2023-09-19T00:49:45;14.73;97.48
64858;SHT30;51335;51.148;6.950;2023-09-19T00:50:20;14.70;97.59
64858;SHT30;51335;51.148;6.950;2023-09-19T00:50:52;14.69;97.56
64858;SHT30;51335;51.148;6.950;2023-09-19T00:51:22;14.72;97.55
64858;SHT30;51335;51.148;6.950;2023-09-19T00:51:53;14.72;97.44
64858;SHT30;51335;51.148;6.950;2023-09-19T00:52:24;14.76;97.45
64858;SHT30;51335;51.148;6.950;2023-09-19T00:52:55;14.76;97.43
64858;SHT30;51335;51.148;6.950;2023-09-19T00:53:25;14.73;97.40
64858;SHT30;51335;51.148;6.950;2023-09-19T00:53:55;14.70;97.42
64858;SHT30;51335;51.148;6.950;2023-09-19T00:54:26;14.67;97.52
64858;SHT30;51335;51.148;6.950;2023-09-19T00:54:56;14.66;97.57
64858;SHT30;51335;51.148;6.950;2023-09-19T00:55:29;14.67;97.61
64858;SHT30;51335;51.148;6.950;2023-09-19T00:56:00;14.66;97.69
64858;SHT30;51335;51.148;6.950;2023-09-19T00:56:30;14.66;97.74
64858;SHT30;51335;51.148;6.950;2023-09-19T00:57:00;14.66;97.67
64858;SHT30;51335;51.148;6.950;2023-09-19T00:57:32;14.64;97.75
64858;SHT30;51335;51.148;6.950;2023-09-19T00:58:03;14.63;97.67
64858;SHT30;51335;51.148;6.950;2023-09-19T00:58:34;14.66;97.71
64858;SHT30;51335;51.148;6.950;2023-09-19T00:59:05;14.62;97.67
64858;SHT30;51335;51.148;6.950;2023-09-19T00:59:35;14.60;97.73
64858;SHT30;51335;51.148;6.950;2023-09-19T01:00:08;14.63;97.67
64858;SHT30;51335;51.148;6.950;2023-09-19T01:00:40;14.63;97.56
64858;SHT30;51335;51.148;6.950;2023-09-19T01:01:11;14.62;97.59
64858;SHT30;51335;51.148;6.950;2023-09-19T01:01:41;14.66;97.59
64858;SHT30;51335;51.148;6.950;2023-09-19T01:02:12;14.69;97.47
64858;SHT30;51335;51.148;6.950;2023-09-19T01:02:42;14.66;97.39
64858;SHT30;51335;51.148;6.950;2023-09-19T01:03:13;14.63;97.43
64858;SHT30;51335;51.148;6.950;2023-09-19T01:03:44;14.63;97.46
64858;SHT30;51335;51.148;6.950;2023-09-19T01:04:14;14.64;97.48
64858;SHT30;51335;51.148;6.950;2023-09-19T01:04:45;14.66;97.46
64858;SHT30;51335;51.148;6.950;2023-09-19T01:05:15;14.63;97.43
64858;SHT30;51335;51.148;6.950;2023-09-19T01:05:45;14.62;97.52
64858;SHT30;51335;51.148;6.950;2023-09-19T01:06:16;14.62;97.52
64858;SHT30;51335;51.148;6.950;2023-09-19T01:06:46;14.64;97.55
64858;SHT30;51335;51.148;6.950;2023-09-19T01:07:17;14.62;97.54
64858;SHT30;51335;51.148;6.950;2023-09-19T01:07:47;14.60;97.52
64858;SHT30;51335;51.148;6.950;2023-09-19T01:08:17;14.56;97.54
64858;SHT30;51335;51.148;6.950;2023-09-19T01:08:48;14.56;97.66
64858;SHT30;51335;51.148;6.950;2023-09-19T01:09:19;14.56;97.70
64858;SHT30;51335;51.148;6.950;2023-09-19T01:09:50;14.62;97.69
64858;SHT30;51335;51.148;6.950;2023-09-19T01:10:20;14.67;97.55
64858;SHT30;51335;51.148;6.950;2023-09-19T01:10:59;14.67;97.45
64858;SHT30;51335;51.148;6.950;2023-09-19T01:11:38;14.63;97.52
64858;SHT30;51335;51.148;6.950;2023-09-19T01:12:13;14.62;97.51
64858;SHT30;51335;51.148;6.950;2023-09-19T01:13:50;14.64;97.50
64858;SHT30;51335;51.148;6.950;2023-09-19T01:14:50;14.59;97.47
64858;SHT30;51335;51.148;6.950;2023-09-19T01:16:35;14.69;96.83
64858;SHT30;51335;51.148;6.950;2023-09-19T01:17:20;14.70;96.69
64858;SHT30;51335;51.148;6.950;2023-09-19T01:21:03;14.76;96.43
64858;SHT30;51335;51.148;6.950;2023-09-19T01:21:45;14.80;96.17
64858;SHT30;51335;51.148;6.950;2023-09-19T01:22:27;14.80;96.13
64858;SHT30;51335;51.148;6.950;2023-09-19T01:23:05;14.80;96.08
64858;SHT30;51335;51.148;6.950;2023-09-19T01:24:34;14.83;95.95
64858;SHT30;51335;51.148;6.950;2023-09-19T01:27:23;14.91;95.97
64858;SHT30;51335;51.148;6.950;2023-09-19T01:29:23;14.94;95.80
64858;SHT30;51335;51.148;6.950;2023-09-19T01:30:08;14.95;95.61
64858;SHT30;51335;51.148;6.950;2023-09-19T01:30:40;14.94;95.64
64858;SHT30;51335;51.148;6.950;2023-09-19T01:31:13;14.93;95.74
64858;SHT30;51335;51.148;6.950;2023-09-19T01:31:45;14.97;95.62
64858;SHT30;51335;51.148;6.950;2023-09-19T01:32:19;14.95;95.49
64858;SHT30;51335;51.148;6.950;2023-09-19T01:32:53;14.94;95.45
64858;SHT30;51335;51.148;6.950;2023-09-19T01:33:24;14.98;95.50
64858;SHT30;51335;51.148;6.950;2023-09-19T01:33:59;14.95;95.36
64858;SHT30;51335;51.148;6.950;2023-09-19T01:34:46;14.93;95.35
64858;SHT30;51335;51.148;6.950;2023-09-19T01:35:16;14.94;95.27
64858;SHT30;51335;51.148;6.950;2023-09-19T01:35:46;14.95;95.20
64858;SHT30;51335;51.148;6.950;2023-09-19T01:36:17;14.95;95.23
64858;SHT30;51335;51.148;6.950;2023-09-19T01:36:47;14.97;95.14
64858;SHT30;51335;51.148;6.950;2023-09-19T01:37:18;14.94;95.19
64858;SHT30;51335;51.148;6.950;2023-09-19T01:37:49;14.95;95.15
64858;SHT30;51335;51.148;6.950;2023-09-19T01:38:19;14.94;95.25
64858;SHT30;51335;51.148;6.950;2023-09-19T01:38:51;14.94;95.25
64858;SHT30;51335;51.148;6.950;2023-09-19T01:39:21;14.91;95.32
64858;SHT30;51335;51.148;6.950;2023-09-19T01:39:58;14.95;95.26
64858;SHT30;51335;51.148;6.950;2023-09-19T01:40:29;14.88;95.15
64858;SHT30;51335;51.148;6.950;2023-09-19T01:41:07;14.88;95.21
64858;SHT30;51335;51.148;6.950;2023-09-19T01:42:09;14.87;95.45
64858;SHT30;51335;51.148;6.950;2023-09-19T01:42:57;14.81;95.51
64858;SHT30;51335;51.148;6.950;2023-09-19T01:43:37;14.81;95.52
64858;SHT30;51335;51.148;6.950;2023-09-19T01:44:16;14.81;95.57
64858;SHT30;51335;51.148;6.950;2023-09-19T01:46:09;14.84;95.39
64858;SHT30;51335;51.148;6.950;2023-09-19T01:46:43;14.90;95.41
64858;SHT30;51335;51.148;6.950;2023-09-19T01:48:21;14.91;94.97
64858;SHT30;51335;51.148;6.950;2023-09-19T01:49:50;14.94;94.91
64858;SHT30;51335;51.148;6.950;2023-09-19T01:50:30;14.91;94.89
64858;SHT30;51335;51.148;6.950;2023-09-19T01:51:05;14.88;94.87
64858;SHT30;51335;51.148;6.950;2023-09-19T01:51:59;14.87;95.08
64858;SHT30;51335;51.148;6.950;2023-09-19T01:52:45;14.90;95.14
64858;SHT30;51335;51.148;6.950;2023-09-19T01:54:27;14.90;95.21
64858;SHT30;51335;51.148;6.950;2023-09-19T01:55:05;14.87;95.33
64858;SHT30;51335;51.148;6.950;2023-09-19T01:55:42;14.90;95.33
64858;SHT30;51335;51.148;6.950;2023-09-19T01:56:21;14.93;95.20
64858;SHT30;51335;51.148;6.950;2023-09-19T01:57:09;14.95;95.16
64858;SHT30;51335;51.148;6.950;2023-09-19T01:58:06;14.94;95.19
64858;SHT30;51335;51.148;6.950;2023-09-19T01:58:45;14.90;95.25
64858;SHT30;51335;51.148;6.950;2023-09-19T01:59:22;14.90;95.31
64858;SHT30;51335;51.148;6.950;2023-09-19T02:00:01;14.91;95.29
64858;SHT30;51335;51.148;6.950;2023-09-19T02:00:32;14.88;95.21
64858;SHT30;51335;51.148;6.950;2023-09-19T02:01:04;14.85;95.29
64858;SHT30;51335;51.148;6.950;2023-09-19T02:01:34;14.87;95.43
64858;SHT30;51335;51.148;6.950;2023-09-19T02:02:06;14.88;95.37
64858;SHT30;51335;51.148;6.950;2023-09-19T02:02:37;14.85;95.25
64858;SHT30;51335;51.148;6.950;2023-09-19T02:03:09;14.84;95.25
64858;SHT30;51335;51.148;6.950;2023-09-19T02:03:40;14.84;95.29
64858;SHT30;51335;51.148;6.950;2023-09-19T02:04:11;14.88;95.27
64858;SHT30;51335;51.148;6.950;2023-09-19T02:04:41;14.90;95.11
64858;SHT30;51335;51.148;6.950;2023-09-19T02:05:12;14.95;94.84
64858;SHT30;51335;51.148;6.950;2023-09-19T02:05:49;15.04;94.55
64858;SHT30;51335;51.148;6.950;2023-09-19T02:06:19;15.04;94.35
64858;SHT30;51335;51.148;6.950;2023-09-19T02:06:50;15.04;94.17
64858;SHT30;51335;51.148;6.950;2023-09-19T02:07:20;15.01;94.17
64858;SHT30;51335;51.148;6.950;2023-09-19T02:07:51;15.03;94.43
64858;SHT30;51335;51.148;6.950;2023-09-19T02:08:22;14.98;94.35
64858;SHT30;51335;51.148;6.950;2023-09-19T02:08:53;15.01;94.32
64858;SHT30;51335;51.148;6.950;2023-09-19T02:09:24;15.00;94.33
64858;SHT30;51335;51.148;6.950;2023-09-19T02:09:55;15.03;94.17
64858;SHT30;51335;51.148;6.950;2023-09-19T02:10:26;15.00;94.05
64858;SHT30;51335;51.148;6.950;2023-09-19T02:10:56;15.01;94.16
64858;SHT30;51335;51.148;6.950;2023-09-19T02:11:26;15.00;94.09
64858;SHT30;51335;51.148;6.950;2023-09-19T02:11:56;14.97;94.23
64858;SHT30;51335;51.148;6.950;2023-09-19T02:12:27;14.94;94.30
64858;SHT30;51335;51.148;6.950;2023-09-19T02:12:57;14.97;94.26
64858;SHT30;51335;51.148;6.950;2023-09-19T02:13:28;14.97;93.99
64858;SHT30;51335;51.148;6.950;2023-09-19T02:13:58;14.97;94.04
64858;SHT30;51335;51.148;6.950;2023-09-19T02:14:29;14.98;93.85
64858;SHT30;51335;51.148;6.950;2023-09-19T02:14:59;15.01;93.82
64858;SHT30;51335;51.148;6.950;2023-09-19T02:15:29;15.01;93.80
64858;SHT30;51335;51.148;6.950;2023-09-19T02:16:00;15.05;93.88
64858;SHT30;51335;51.148;6.950;2023-09-19T02:16:30;14.98;93.78
64858;SHT30;51335;51.148;6.950;2023-09-19T02:17:00;15.01;93.81
64858;SHT30;51335;51.148;6.950;2023-09-19T02:17:31;15.00;93.81
64858;SHT30;51335;51.148;6.950;2023-09-19T02:18:01;15.05;93.37
64858;SHT30;51335;51.148;6.950;2023-09-19T02:18:31;15.03;93.36
64858;SHT30;51335;51.148;6.950;2023-09-19T02:19:01;15.03;93.37
64858;SHT30;51335;51.148;6.950;2023-09-19T02:19:32;15.01;93.45
64858;SHT30;51335;51.148;6.950;2023-09-19T02:20:03;15.04;93.33
64858;SHT30;51335;51.148;6.950;2023-09-19T02:20:33;15.05;93.30
64858;SHT30;51335;51.148;6.950;2023-09-19T02:21:04;15.05;93.14
64858;SHT30;51335;51.148;6.950;2023-09-19T02:21:34;15.07;93.17
64858;SHT30;51335;51.148;6.950;2023-09-19T02:22:04;15.05;93.20
64858;SHT30;51335;51.148;6.950;2023-09-19T02:22:35;15.01;93.30
64858;SHT30;51335;51.148;6.950;2023-09-19T02:23:05;15.01;93.30
64858;SHT30;51335;51.148;6.950;2023-09-19T02:23:36;15.03;93.38
64858;SHT30;51335;51.148;6.950;2023-09-19T02:24:07;14.98;93.49
64858;SHT30;51335;51.148;6.950;2023-09-19T02:24:37;14.97;93.48
64858;SHT30;51335;51.148;6.950;2023-09-19T02:25:08;14.98;93.53
64858;SHT30;51335;51.148;6.950;2023-09-19T02:25:39;15.03;93.43
64858;SHT30;51335;51.148;6.950;2023-09-19T02:26:09;15.03;92.98
64858;SHT30;51335;51.148;6.950;2023-09-19T02:26:39;15.03;93.13
64858;SHT30;51335;51.148;6.950;2023-09-19T02:27:09;15.04;92.90
64858;SHT30;51335;51.148;6.950;2023-09-19T02:27:40;15.01;92.81
64858;SHT30;51335;51.148;6.950;2023-09-19T02:28:10;15.03;92.81
64858;SHT30;51335;51.148;6.950;2023-09-19T02:28:40;15.08;92.71
64858;SHT30;51335;51.148;6.950;2023-09-19T02:29:11;15.05;92.63
64858;SHT30;51335;51.148;6.950;2023-09-19T02:29:41;15.03;92.67
64858;SHT30;51335;51.148;6.950;2023-09-19T02:30:12;15.05;92.79
64858;SHT30;51335;51.148;6.950;2023-09-19T02:30:43;15.03;92.52
64858;SHT30;51335;51.148;6.950;2023-09-19T02:31:13;15.03;92.44
64858;SHT30;51335;51.148;6.950;2023-09-19T02:31:43;15.03;92.46
64858;SHT30;51335;51.148;6.950;2023-09-19T02:32:13;15.05;92.37
64858;SHT30;51335;51.148;6.950;2023-09-19T02:32:44;15.04;92.38
64858;SHT30;51335;51.148;6.950;2023-09-19T02:33:14;15.08;92.35
64858;SHT30;51335;51.148;6.950;2023-09-19T02:33:45;15.08;92.25
64858;SHT30;51335;51.148;6.950;2023-09-19T02:34:15;15.05;92.31
64858;SHT30;51335;51.148;6.950;2023-09-19T02:34:45;15.01;92.37
64858;SHT30;51335;51.148;6.950;2023-09-19T02:35:16;15.03;92.51
64858;SHT30;51335;51.148;6.950;2023-09-19T02:35:46;15.04;92.63
64858;SHT30;51335;51.148;6.950;2023-09-19T02:36:16;15.03;92.58
64858;SHT30;51335;51.148;6.950;2023-09-19T02:36:47;15.04;92.67
64858;SHT30;51335;51.148;6.950;2023-09-19T02:37:17;15.04;92.53
64858;SHT30;51335;51.148;6.950;2023-09-19T02:37:48;15.00;92.61
64858;SHT30;51335;51.148;6.950;2023-09-19T02:38:18;15.00;92.66
64858;SHT30;51335;51.148;6.950;2023-09-19T02:38:49;15.01;92.48
64858;SHT30;51335;51.148;6.950;2023-09-19T02:39:19;15.03;92.30
64858;SHT30;51335;51.148;6.950;2023-09-19T02:39:50;14.98;92.35
64858;SHT30;51335;51.148;6.950;2023-09-19T02:40:20;14.93;92.45
64858;SHT30;51335;51.148;6.950;2023-09-19T02:40:50;15.00;92.37
64858;SHT30;51335;51.148;6.950;2023-09-19T02:41:21;15.00;92.18
64858;SHT30;51335;51.148;6.950;2023-09-19T02:41:51;14.98;92.18
64858;SHT30;51335;51.148;6.950;2023-09-19T02:42:22;14.95;92.18
64858;SHT30;51335;51.148;6.950;2023-09-19T02:42:55;14.97;91.99
64858;SHT30;51335;51.148;6.950;2023-09-19T02:43:26;14.98;92.01
64858;SHT30;51335;51.148;6.950;2023-09-19T02:43:56;14.95;92.07
64858;SHT30;51335;51.148;6.950;2023-09-19T02:44:26;14.97;92.07
64858;SHT30;51335;51.148;6.950;2023-09-19T02:44:57;15.03;92.12
64858;SHT30;51335;51.148;6.950;2023-09-19T02:45:27;15.05;91.91
64858;SHT30;51335;51.148;6.950;2023-09-19T02:45:58;15.04;92.06
64858;SHT30;51335;51.148;6.950;2023-09-19T02:46:28;15.04;91.72
64858;SHT30;51335;51.148;6.950;2023-09-19T02:46:58;15.04;91.51
64858;SHT30;51335;51.148;6.950;2023-09-19T02:47:29;15.00;91.51
64858;SHT30;51335;51.148;6.950;2023-09-19T02:47:59;15.01;91.65
64858;SHT30;51335;51.148;6.950;2023-09-19T02:48:29;15.01;91.75
64858;SHT30;51335;51.148;6.950;2023-09-19T02:48:59;15.04;91.75
64858;SHT30;51335;51.148;6.950;2023-09-19T02:49:30;15.01;91.75
64858;SHT30;51335;51.148;6.950;2023-09-19T02:50:00;15.05;91.80
64858;SHT30;51335;51.148;6.950;2023-09-19T02:50:31;15.05;91.85
64858;SHT30;51335;51.148;6.950;2023-09-19T02:51:01;15.08;91.86
64858;SHT30;51335;51.148;6.950;2023-09-19T02:51:32;15.03;91.80
64858;SHT30;51335;51.148;6.950;2023-09-19T02:52:03;15.03;91.96
64858;SHT30;51335;51.148;6.950;2023-09-19T02:52:33;15.00;92.06
64858;SHT30;51335;51.148;6.950;2023-09-19T02:53:03;14.94;92.13
64858;SHT30;51335;51.148;6.950;2023-09-19T02:53:34;14.93;92.27
64858;SHT30;51335;51.148;6.950;2023-09-19T02:54:04;14.90;92.43
64858;SHT30;51335;51.148;6.950;2023-09-19T02:54:34;14.91;92.53
64858;SHT30;51335;51.148;6.950;2023-09-19T02:55:05;14.88;92.60
64858;SHT30;51335;51.148;6.950;2023-09-19T02:55:35;14.85;92.55
64858;SHT30;51335;51.148;6.950;2023-09-19T02:56:06;14.84;92.51
64858;SHT30;51335;51.148;6.950;2023-09-19T02:56:36;14.81;92.43
64858;SHT30;51335;51.148;6.950;2023-09-19T02:57:07;14.79;92.52
64858;SHT30;51335;51.148;6.950;2023-09-19T02:57:37;14.83;92.16
64858;SHT30;51335;51.148;6.950;2023-09-19T02:58:08;14.79;92.17
64858;SHT30;51335;51.148;6.950;2023-09-19T02:58:39;14.77;92.24
64858;SHT30;51335;51.148;6.950;2023-09-19T02:59:09;14.76;92.40
64858;SHT30;51335;51.148;6.950;2023-09-19T02:59:39;14.74;92.45
64858;SHT30;51335;51.148;6.950;2023-09-19T03:00:10;14.73;92.51
64858;SHT30;51335;51.148;6.950;2023-09-19T03:00:41;14.77;92.59
64858;SHT30;51335;51.148;6.950;2023-09-19T03:01:12;14.79;92.75
64858;SHT30;51335;51.148;6.950;2023-09-19T03:01:45;14.81;92.81
64858;SHT30;51335;51.148;6.950;2023-09-19T03:02:15;14.79;92.66
64858;SHT30;51335;51.148;6.950;2023-09-19T03:02:46;14.79;92.70
64858;SHT30;51335;51.148;6.950;2023-09-19T03:03:16;14.77;92.73
64858;SHT30;51335;51.148;6.950;2023-09-19T03:03:46;14.74;92.81
64858;SHT30;51335;51.148;6.950;2023-09-19T03:04:17;14.70;92.86
64858;SHT30;51335;51.148;6.950;2023-09-19T03:04:47;14.69;92.90
64858;SHT30;51335;51.148;6.950;2023-09-19T03:05:17;14.64;93.03
64858;SHT30;51335;51.148;6.950;2023-09-19T03:05:48;14.62;93.09
64858;SHT30;51335;51.148;6.950;2023-09-19T03:06:18;14.60;93.17
64858;SHT30;51335;51.148;6.950;2023-09-19T03:06:48;14.60;93.28
64858;SHT30;51335;51.148;6.950;2023-09-19T03:07:19;14.60;93.36
64858;SHT30;51335;51.148;6.950;2023-09-19T03:07:50;14.62;93.32
64858;SHT30;51335;51.148;6.950;2023-09-19T03:08:20;14.56;93.36
64858;SHT30;51335;51.148;6.950;2023-09-19T03:08:50;14.56;93.42
64858;SHT30;51335;51.148;6.950;2023-09-19T03:09:20;14.57;93.46
64858;SHT30;51335;51.148;6.950;2023-09-19T03:09:51;14.52;93.47
64858;SHT30;51335;51.148;6.950;2023-09-19T03:10:21;14.49;93.48
64858;SHT30;51335;51.148;6.950;2023-09-19T03:10:52;14.49;93.59
64858;SHT30;51335;51.148;6.950;2023-09-19T03:11:22;14.46;93.57
64858;SHT30;51335;51.148;6.950;2023-09-19T03:11:53;14.42;93.64
64858;SHT30;51335;51.148;6.950;2023-09-19T03:12:23;14.40;93.80
64858;SHT30;51335;51.148;6.950;2023-09-19T03:12:53;14.42;94.06
64858;SHT30;51335;51.148;6.950;2023-09-19T03:13:24;14.40;94.07
64858;SHT30;51335;51.148;6.950;2023-09-19T03:13:54;14.40;94.05
64858;SHT30;51335;51.148;6.950;2023-09-19T03:14:25;14.39;94.02
64858;SHT30;51335;51.148;6.950;2023-09-19T03:14:55;14.36;93.97
64858;SHT30;51335;51.148;6.950;2023-09-19T03:15:25;14.43;94.02
64858;SHT30;51335;51.148;6.950;2023-09-19T03:15:56;14.42;94.00
64858;SHT30;51335;51.148;6.950;2023-09-19T03:16:26;14.42;93.94
64858;SHT30;51335;51.148;6.950;2023-09-19T03:16:56;14.40;93.81
64858;SHT30;51335;51.148;6.950;2023-09-19T03:17:27;14.39;93.73
64858;SHT30;51335;51.148;6.950;2023-09-19T03:17:57;14.37;93.84
64858;SHT30;51335;51.148;6.950;2023-09-19T03:18:27;14.39;93.80
64858;SHT30;51335;51.148;6.950;2023-09-19T03:18:57;14.42;93.86
64858;SHT30;51335;51.148;6.950;2023-09-19T03:19:28;14.43;93.41
64858;SHT30;51335;51.148;6.950;2023-09-19T03:19:58;14.50;92.50
64858;SHT30;51335;51.148;6.950;2023-09-19T03:20:28;14.49;92.14
64858;SHT30;51335;51.148;6.950;2023-09-19T03:20:58;14.50;92.19
64858;SHT30;51335;51.148;6.950;2023-09-19T03:21:29;14.49;92.25
64858;SHT30;51335;51.148;6.950;2023-09-19T03:21:59;14.53;92.29
64858;SHT30;51335;51.148;6.950;2023-09-19T03:22:29;14.50;92.55
64858;SHT30;51335;51.148;6.950;2023-09-19T03:23:00;14.55;92.35
64858;SHT30;51335;51.148;6.950;2023-09-19T03:23:30;14.49;92.42
64858;SHT30;51335;51.148;6.950;2023-09-19T03:24:00;14.45;92.50
64858;SHT30;51335;51.148;6.950;2023-09-19T03:24:31;14.46;92.47
64858;SHT30;51335;51.148;6.950;2023-09-19T03:25:01;14.45;92.47
64858;SHT30;51335;51.148;6.950;2023-09-19T03:25:34;14.45;92.52
64858;SHT30;51335;51.148;6.950;2023-09-19T03:26:04;14.45;92.51
64858;SHT30;51335;51.148;6.950;2023-09-19T03:26:35;14.46;92.53
64858;SHT30;51335;51.148;6.950;2023-09-19T03:27:05;14.43;92.38
64858;SHT30;51335;51.148;6.950;2023-09-19T03:27:35;14.40;92.47
64858;SHT30;51335;51.148;6.950;2023-09-19T03:28:06;14.35;92.65
64858;SHT30;51335;51.148;6.950;2023-09-19T03:28:36;14.36;92.78
64858;SHT30;51335;51.148;6.950;2023-09-19T03:29:06;14.35;92.79
64858;SHT30;51335;51.148;6.950;2023-09-19T03:29:37;14.32;92.77
64858;SHT30;51335;51.148;6.950;2023-09-19T03:30:07;14.37;92.64
64858;SHT30;51335;51.148;6.950;2023-09-19T03:30:38;14.39;92.37
64858;SHT30;51335;51.148;6.950;2023-09-19T03:31:08;14.43;92.23
64858;SHT30;51335;51.148;6.950;2023-09-19T03:31:39;14.46;92.01
64858;SHT30;51335;51.148;6.950;2023-09-19T03:32:09;14.45;91.90
64858;SHT30;51335;51.148;6.950;2023-09-19T03:32:49;14.45;91.79
64858;SHT30;51335;51.148;6.950;2023-09-19T03:33:19;14.37;91.86
64858;SHT30;51335;51.148;6.950;2023-09-19T03:33:49;14.30;91.98
64858;SHT30;51335;51.148;6.950;2023-09-19T03:34:20;14.35;92.14
64858;SHT30;51335;51.148;6.950;2023-09-19T03:34:50;14.30;92.15